Time;durP1;ratioP1;P1;durP2;ratioP2;P2;SDS_P1;SDS_P2;PMS_P1;PMS_P2;Temp;Humidity;BMP_temperature;BMP_pressure;BME280_temperature;BME280_humidity;BME280_pressure;Samples;Min_cycle;Max_cycle;Signal;HPM_P1;HPM_P2
2022/03/05 00:02:13;;;;;;;;;;;7.70;56.20;;;;;;6127885;23;19994;-74
2022/03/05 00:04:40;;;;;;;;;;;7.60;55.90;;;;;;6129296;23;19917;-76
2022/03/05 00:07:08;;;;;;;;;;;7.60;56.00;;;;;;6125872;23;19995;-75
2022/03/05 00:09:35;;;;;;;;;;;7.60;56.10;;;;;;6128353;23;19917;-74
2022/03/05 00:12:02;;;;;;;;;;;7.60;56.10;;;;;;6127183;23;19923;-76
2022/03/05 00:14:28;;;;;;;;;;;7.60;56.50;;;;;;6124244;23;19924;-76
2022/03/05 00:16:55;;;;;;;;;;;7.60;56.50;;;;;;6123165;23;20235;-76
2022/03/05 00:19:22;;;;;;;;;;;7.50;56.50;;;;;;6127409;23;19942;-77
2022/03/05 00:21:49;;;;;;;;;;;7.50;56.80;;;;;;6130762;23;20400;-77
2022/03/05 00:24:15;;;;;;;;;;;7.50;56.70;;;;;;6153473;23;19924;-76
2022/03/05 00:26:42;;;;;;;;;;;7.50;56.70;;;;;;6128017;23;19917;-76
2022/03/05 00:29:09;;;;;;;;;;;7.50;56.50;;;;;;6126089;23;19924;-76
2022/03/05 00:31:36;;;;;;;;;;;7.60;55.90;;;;;;6126627;23;19940;-74
2022/03/05 00:34:05;;;;;;;;;;;7.70;56.00;;;;;;6123341;23;20385;-77
2022/03/05 00:36:31;;;;;;;;;;;7.70;56.30;;;;;;6128670;23;19917;-76
2022/03/05 00:38:58;;;;;;;;;;;7.70;55.90;;;;;;6122573;23;20333;-76
2022/03/05 00:41:25;;;;;;;;;;;7.70;56.00;;;;;;6123388;23;19920;-76
2022/03/05 00:43:52;;;;;;;;;;;7.70;55.50;;;;;;6122103;23;19920;-76
2022/03/05 00:46:19;;;;;;;;;;;7.70;55.30;;;;;;6126391;23;20385;-76
2022/03/05 00:48:45;;;;;;;;;;;7.70;55.10;;;;;;6131228;23;19927;-76
2022/03/05 00:51:12;;;;;;;;;;;7.70;55.30;;;;;;6122798;23;19916;-76
2022/03/05 00:53:39;;;;;;;;;;;7.70;55.30;;;;;;6131212;23;19980;-76
2022/03/05 00:56:06;;;;;;;;;;;7.70;55.20;;;;;;6126478;23;20413;-75
2022/03/05 00:58:32;;;;;;;;;;;7.70;54.80;;;;;;6123650;23;19916;-76
2022/03/05 01:00:59;;;;;;;;;;;7.70;54.30;;;;;;6124403;23;20253;-76
2022/03/05 01:03:26;;;;;;;;;;;7.70;54.30;;;;;;6126558;23;19917;-76
2022/03/05 01:05:54;;;;;;;;;;;7.70;54.30;;;;;;6126683;23;20293;-74
2022/03/05 01:08:21;;;;;;;;;;;7.70;54.10;;;;;;6127172;23;19923;-76
2022/03/05 01:10:47;;;;;;;;;;;7.70;54.10;;;;;;6123061;23;20393;-76
2022/03/05 01:13:14;;;;;;;;;;;7.70;54.10;;;;;;6148832;23;19921;-76
2022/03/05 01:15:41;;;;;;;;;;;7.70;54.10;;;;;;6124098;23;19920;-76
2022/03/05 01:18:08;;;;;;;;;;;7.70;53.60;;;;;;6147086;23;20302;-76
2022/03/05 01:20:35;;;;;;;;;;;7.70;53.50;;;;;;6130019;23;19968;-75
2022/03/05 01:23:02;;;;;;;;;;;7.70;53.40;;;;;;6127532;23;19917;-76
2022/03/05 01:25:29;;;;;;;;;;;7.70;53.20;;;;;;6122615;23;20459;-76
2022/03/05 01:27:55;;;;;;;;;;;7.80;52.70;;;;;;6151806;23;19916;-74
2022/03/05 01:30:23;;;;;;;;;;;7.80;52.90;;;;;;6151495;23;19924;-75
2022/03/05 01:32:51;;;;;;;;;;;7.70;53.10;;;;;;6133062;23;20257;-76
2022/03/05 01:35:18;;;;;;;;;;;7.70;52.70;;;;;;6120925;23;20017;-76
2022/03/05 01:37:45;;;;;;;;;;;7.70;52.40;;;;;;6131729;23;19921;-74
2022/03/05 01:40:12;;;;;;;;;;;7.70;52.50;;;;;;6129759;23;19944;-74
2022/03/05 01:42:38;;;;;;;;;;;7.70;52.20;;;;;;6124975;23;19920;-76
2022/03/05 01:45:05;;;;;;;;;;;7.70;51.50;;;;;;6126419;23;19944;-76
2022/03/05 01:47:32;;;;;;;;;;;7.70;51.50;;;;;;6125922;23;19917;-77
2022/03/05 01:49:59;;;;;;;;;;;7.70;51.70;;;;;;6123671;23;20342;-76
2022/03/05 01:52:25;;;;;;;;;;;7.70;51.70;;;;;;6125565;23;20357;-76
2022/03/05 01:54:52;;;;;;;;;;;7.70;51.40;;;;;;6121889;23;19921;-76
2022/03/05 01:57:19;;;;;;;;;;;7.70;51.60;;;;;;6125084;23;19933;-77
2022/03/05 01:59:46;;;;;;;;;;;7.70;51.00;;;;;;6123148;23;19971;-77
2022/03/05 02:02:12;;;;;;;;;;;7.70;51.20;;;;;;6123157;23;19917;-76
2022/03/05 02:04:40;;;;;;;;;;;7.70;51.20;;;;;;6125422;23;19917;-77
2022/03/05 02:07:08;;;;;;;;;;;7.70;50.90;;;;;;6129972;23;20321;-75
2022/03/05 02:09:35;;;;;;;;;;;7.70;50.90;;;;;;6131863;23;20301;-76
2022/03/05 02:12:02;;;;;;;;;;;7.70;51.30;;;;;;6125776;23;19920;-76
2022/03/05 02:14:29;;;;;;;;;;;7.70;50.50;;;;;;6123501;23;19921;-75
2022/03/05 02:16:56;;;;;;;;;;;7.70;50.60;;;;;;6126291;23;20333;-76
2022/03/05 02:19:24;;;;;;;;;;;7.70;50.20;;;;;;6130920;23;19917;-76
2022/03/05 02:21:51;;;;;;;;;;;7.70;50.20;;;;;;6129044;23;19917;-74
2022/03/05 02:24:31;;;;;;;;;;;7.70;51.00;;;;;;6129550;23;19917;-74
2022/03/05 02:26:59;;;;;;;;;;;7.60;50.80;;;;;;6131657;23;19927;-76
2022/03/05 02:29:26;;;;;;;;;;;7.60;50.80;;;;;;6128860;23;19967;-76
2022/03/05 02:31:53;;;;;;;;;;;7.60;51.30;;;;;;6130695;23;20285;-74
2022/03/05 02:34:21;;;;;;;;;;;7.60;50.20;;;;;;6126756;23;20384;-76
2022/03/05 02:36:48;;;;;;;;;;;7.60;51.00;;;;;;6125971;23;20341;-76
2022/03/05 02:39:14;;;;;;;;;;;7.60;51.00;;;;;;6125552;23;19921;-76
2022/03/05 02:41:41;;;;;;;;;;;7.60;51.30;;;;;;6123997;23;19924;-76
2022/03/05 02:44:08;;;;;;;;;;;7.60;50.80;;;;;;6127741;23;19949;-76
2022/03/05 02:46:35;;;;;;;;;;;7.60;50.20;;;;;;6137781;23;19928;-76
2022/03/05 02:49:03;;;;;;;;;;;7.60;50.40;;;;;;6130589;23;19916;-74
2022/03/05 02:51:30;;;;;;;;;;;7.60;50.80;;;;;;6125079;23;19945;-76
2022/03/05 02:53:57;;;;;;;;;;;7.60;50.90;;;;;;6125274;23;19917;-76
2022/03/05 02:56:24;;;;;;;;;;;7.60;51.30;;;;;;6126011;23;19943;-74
2022/03/05 02:58:50;;;;;;;;;;;7.60;51.20;;;;;;6127801;23;19934;-74
2022/03/05 03:01:17;;;;;;;;;;;7.60;51.10;;;;;;6128433;23;19917;-76
2022/03/05 03:03:45;;;;;;;;;;;7.50;50.90;;;;;;6149614;23;19925;-75
2022/03/05 03:06:11;;;;;;;;;;;7.50;50.30;;;;;;6128662;23;19917;-77
2022/03/05 03:08:38;;;;;;;;;;;7.40;50.00;;;;;;6123847;23;19916;-74
2022/03/05 03:11:05;;;;;;;;;;;7.40;49.70;;;;;;6130695;23;20400;-76
2022/03/05 03:13:32;;;;;;;;;;;7.40;50.00;;;;;;6136919;23;19932;-74
2022/03/05 03:15:58;;;;;;;;;;;7.40;50.00;;;;;;6126875;23;19927;-75
2022/03/05 03:18:25;;;;;;;;;;;7.40;49.50;;;;;;6126287;23;19921;-76
2022/03/05 03:20:52;;;;;;;;;;;7.30;49.70;;;;;;6129674;23;19932;-74
2022/03/05 03:23:19;;;;;;;;;;;7.30;49.80;;;;;;6130513;23;20294;-75
2022/03/05 03:25:45;;;;;;;;;;;7.30;50.00;;;;;;6129715;23;19924;-75
2022/03/05 03:28:12;;;;;;;;;;;7.20;49.60;;;;;;6125135;23;19916;-76
2022/03/05 03:30:39;;;;;;;;;;;7.20;50.00;;;;;;6126914;23;20272;-77
2022/03/05 03:33:06;;;;;;;;;;;7.20;49.40;;;;;;6129046;23;19924;-74
2022/03/05 03:35:33;;;;;;;;;;;7.20;49.40;;;;;;6127579;23;20444;-76
2022/03/05 03:37:59;;;;;;;;;;;7.20;49.60;;;;;;6131901;23;19917;-74
2022/03/05 03:40:26;;;;;;;;;;;7.20;49.80;;;;;;6126531;23;19924;-76
2022/03/05 03:42:53;;;;;;;;;;;7.10;49.80;;;;;;6126562;23;19917;-76
2022/03/05 03:45:20;;;;;;;;;;;7.10;49.80;;;;;;6125913;23;19991;-75
2022/03/05 03:47:48;;;;;;;;;;;7.10;49.70;;;;;;6132154;23;19916;-76
2022/03/05 03:50:16;;;;;;;;;;;7.10;49.60;;;;;;6126652;23;19920;-74
2022/03/05 03:52:42;;;;;;;;;;;7.10;49.80;;;;;;6129984;23;19942;-76
2022/03/05 03:55:11;;;;;;;;;;;7.10;49.70;;;;;;6124397;23;19917;-76
2022/03/05 03:57:38;;;;;;;;;;;7.10;49.30;;;;;;6124063;23;19921;-76
2022/03/05 04:00:08;;;;;;;;;;;7.10;49.10;;;;;;6128041;23;20233;-76
2022/03/05 04:02:35;;;;;;;;;;;7.00;49.30;;;;;;6123822;23;19920;-74
2022/03/05 04:05:02;;;;;;;;;;;7.00;49.20;;;;;;6128474;23;19917;-76
2022/03/05 04:10:14;;;;;;;;;;;7.10;48.30;;;;;;6129919;23;19917;-76
2022/03/05 04:12:40;;;;;;;;;;;7.10;48.50;;;;;;6122878;23;19924;-76
2022/03/05 04:15:08;;;;;;;;;;;7.10;48.50;;;;;;6150820;23;19917;-76
2022/03/05 04:17:34;;;;;;;;;;;7.00;48.60;;;;;;6126819;23;19925;-76
2022/03/05 04:20:01;;;;;;;;;;;7.00;48.60;;;;;;6150911;23;20392;-75
2022/03/05 04:22:28;;;;;;;;;;;7.00;49.10;;;;;;6121944;23;19927;-76
2022/03/05 04:24:55;;;;;;;;;;;7.00;48.60;;;;;;6125830;23;19975;-74
2022/03/05 04:27:21;;;;;;;;;;;7.00;48.40;;;;;;6129980;23;20332;-76
2022/03/05 04:29:48;;;;;;;;;;;7.00;48.20;;;;;;6123521;23;20314;-76
2022/03/05 04:32:15;;;;;;;;;;;7.00;49.00;;;;;;6125877;23;19955;-75
2022/03/05 04:34:42;;;;;;;;;;;7.00;47.70;;;;;;6123831;23;19916;-76
2022/03/05 04:37:10;;;;;;;;;;;7.00;47.60;;;;;;6132971;23;19920;-76
2022/03/05 04:39:37;;;;;;;;;;;7.00;47.20;;;;;;6132286;23;19917;-74
2022/03/05 04:42:04;;;;;;;;;;;7.00;47.60;;;;;;6128663;23;19917;-76
2022/03/05 04:44:30;;;;;;;;;;;7.00;47.70;;;;;;6122901;23;19971;-76
2022/03/05 04:46:57;;;;;;;;;;;7.00;47.90;;;;;;6127983;23;19972;-76
2022/03/05 04:49:24;;;;;;;;;;;7.00;48.40;;;;;;6127215;23;19921;-74
2022/03/05 04:51:51;;;;;;;;;;;7.00;48.80;;;;;;6130150;23;19920;-74
2022/03/05 04:54:18;;;;;;;;;;;7.00;49.00;;;;;;6122052;23;19921;-76
2022/03/05 04:56:45;;;;;;;;;;;6.90;49.00;;;;;;6127037;23;19921;-76
2022/03/05 04:59:12;;;;;;;;;;;6.90;49.40;;;;;;6146685;23;19944;-76
2022/03/05 05:01:38;;;;;;;;;;;6.90;49.40;;;;;;6127342;23;19968;-74
2022/03/05 05:04:05;;;;;;;;;;;6.90;49.70;;;;;;6127111;23;19920;-75
2022/03/05 05:06:32;;;;;;;;;;;6.90;50.00;;;;;;6129821;23;19917;-76
2022/03/05 05:08:59;;;;;;;;;;;6.80;50.30;;;;;;6127829;23;19939;-76
2022/03/05 05:11:26;;;;;;;;;;;6.90;51.00;;;;;;6150087;23;19968;-76
2022/03/05 05:13:52;;;;;;;;;;;6.90;51.10;;;;;;6130914;23;20392;-76
2022/03/05 05:16:19;;;;;;;;;;;6.90;51.80;;;;;;6129338;23;19921;-75
2022/03/05 05:21:31;;;;;;;;;;;6.80;52.40;;;;;;6122885;23;19963;-76
2022/03/05 05:23:58;;;;;;;;;;;6.80;52.90;;;;;;6123915;23;20227;-76
2022/03/05 05:26:25;;;;;;;;;;;6.80;53.10;;;;;;6149203;23;19928;-76
2022/03/05 05:28:52;;;;;;;;;;;6.80;53.80;;;;;;6128114;23;19916;-75
2022/03/05 05:31:19;;;;;;;;;;;6.80;52.40;;;;;;6132894;23;19920;-75
2022/03/05 05:33:45;;;;;;;;;;;6.80;52.40;;;;;;6123216;23;20341;-76
2022/03/05 05:36:12;;;;;;;;;;;6.80;52.00;;;;;;6133518;23;19967;-76
2022/03/05 05:38:39;;;;;;;;;;;6.80;51.70;;;;;;6126522;23;19940;-76
2022/03/05 05:41:06;;;;;;;;;;;6.80;52.00;;;;;;6125926;23;19968;-76
2022/03/05 05:43:33;;;;;;;;;;;6.80;51.80;;;;;;6125452;23;19971;-76
2022/03/05 05:46:00;;;;;;;;;;;6.80;51.60;;;;;;6128816;23;20397;-74
2022/03/05 05:48:47;;;;;;;;;;;6.80;51.70;;;;;;6115589;23;19995;-76
2022/03/05 05:51:13;;;;;;;;;;;6.90;51.30;;;;;;6126655;23;20346;-75
2022/03/05 05:53:40;;;;;;;;;;;6.90;51.30;;;;;;6126375;23;19956;-76
2022/03/05 05:56:07;;;;;;;;;;;6.90;50.90;;;;;;6128220;23;19916;-76
2022/03/05 05:58:34;;;;;;;;;;;6.90;50.90;;;;;;6148553;23;19944;-76
2022/03/05 06:01:00;;;;;;;;;;;6.90;50.80;;;;;;6125262;23;19925;-76
2022/03/05 06:03:27;;;;;;;;;;;6.90;50.80;;;;;;6151004;23;20425;-75
2022/03/05 06:05:56;;;;;;;;;;;6.90;51.30;;;;;;6127588;23;19945;-74
2022/03/05 06:08:23;;;;;;;;;;;6.80;51.70;;;;;;6127042;23;19917;-76
2022/03/05 06:10:51;;;;;;;;;;;6.80;52.60;;;;;;6130228;23;19925;-76
2022/03/05 06:13:18;;;;;;;;;;;6.70;52.70;;;;;;6126394;23;19941;-76
2022/03/05 06:15:45;;;;;;;;;;;6.70;53.40;;;;;;6128471;23;19921;-74
2022/03/05 06:18:12;;;;;;;;;;;6.70;54.00;;;;;;6130437;23;19984;-76
2022/03/05 06:20:41;;;;;;;;;;;6.70;54.80;;;;;;6127373;23;20033;-76
2022/03/05 06:23:07;;;;;;;;;;;6.60;55.40;;;;;;6125241;23;19955;-76
2022/03/05 06:25:34;;;;;;;;;;;6.50;56.50;;;;;;6126856;23;20337;-76
2022/03/05 06:28:01;;;;;;;;;;;6.50;57.30;;;;;;6128514;23;19924;-76
2022/03/05 06:30:28;;;;;;;;;;;6.50;58.00;;;;;;6129599;23;19921;-76
2022/03/05 06:32:55;;;;;;;;;;;6.50;57.90;;;;;;6124586;23;20416;-76
2022/03/05 06:35:21;;;;;;;;;;;6.40;58.10;;;;;;6134802;23;19972;-74
2022/03/05 06:37:48;;;;;;;;;;;6.40;58.70;;;;;;6160375;23;19924;-74
2022/03/05 06:40:15;;;;;;;;;;;6.40;58.40;;;;;;6127501;23;19921;-74
2022/03/05 06:42:42;;;;;;;;;;;6.30;58.60;;;;;;6127629;23;19924;-74
2022/03/05 06:45:09;;;;;;;;;;;6.30;58.70;;;;;;6129658;23;19940;-74
2022/03/05 06:47:36;;;;;;;;;;;6.30;59.00;;;;;;6129324;23;19921;-75
2022/03/05 06:50:06;;;;;;;;;;;6.30;58.90;;;;;;6132517;23;19920;-74
2022/03/05 06:52:33;;;;;;;;;;;6.30;59.00;;;;;;6126179;23;19975;-75
2022/03/05 06:55:00;;;;;;;;;;;6.20;59.30;;;;;;6123321;23;19920;-76
2022/03/05 06:57:27;;;;;;;;;;;6.20;59.30;;;;;;6127014;23;19948;-76
2022/03/05 06:59:53;;;;;;;;;;;6.20;59.40;;;;;;6148403;23;19917;-76
2022/03/05 07:02:21;;;;;;;;;;;6.20;59.30;;;;;;6128479;23;19928;-76
2022/03/05 07:04:49;;;;;;;;;;;6.20;59.50;;;;;;6150058;23;19917;-76
2022/03/05 07:07:16;;;;;;;;;;;6.20;59.70;;;;;;6134070;23;19972;-76
2022/03/05 07:09:43;;;;;;;;;;;6.20;59.70;;;;;;6129770;23;19921;-76
2022/03/05 07:12:10;;;;;;;;;;;6.20;59.70;;;;;;6123043;23;19933;-76
2022/03/05 07:14:37;;;;;;;;;;;6.20;59.60;;;;;;6126325;23;20341;-74
2022/03/05 07:17:04;;;;;;;;;;;6.20;59.30;;;;;;6129643;23;20253;-74
2022/03/05 07:19:30;;;;;;;;;;;6.20;59.20;;;;;;6124815;23;20364;-74
2022/03/05 07:21:57;;;;;;;;;;;6.20;59.20;;;;;;6130500;23;19917;-76
2022/03/05 07:24:24;;;;;;;;;;;6.20;59.20;;;;;;6127916;23;20396;-76
2022/03/05 07:26:51;;;;;;;;;;;6.20;59.60;;;;;;6146837;23;20231;-76
2022/03/05 07:29:17;;;;;;;;;;;6.30;59.40;;;;;;6129809;23;19924;-76
2022/03/05 07:31:45;;;;;;;;;;;6.20;59.10;;;;;;6123201;23;19964;-76
2022/03/05 07:34:12;;;;;;;;;;;6.30;58.90;;;;;;6129828;23;19948;-75
2022/03/05 07:36:39;;;;;;;;;;;6.30;59.00;;;;;;6122615;23;20346;-77
2022/03/05 07:39:07;;;;;;;;;;;6.30;59.30;;;;;;6124924;23;19948;-76
2022/03/05 07:41:36;;;;;;;;;;;6.40;59.20;;;;;;6122714;23;19916;-76
2022/03/05 07:44:06;;;;;;;;;;;6.30;58.90;;;;;;6124035;23;20293;-76
2022/03/05 07:46:35;;;;;;;;;;;6.30;60.20;;;;;;6123722;23;19935;-76
2022/03/05 07:49:02;;;;;;;;;;;6.40;59.10;;;;;;6127414;23;19983;-75
2022/03/05 07:51:29;;;;;;;;;;;6.40;59.30;;;;;;6122406;23;19921;-76
2022/03/05 07:53:55;;;;;;;;;;;6.40;59.30;;;;;;6129518;23;19924;-76
2022/03/05 07:56:22;;;;;;;;;;;6.50;58.90;;;;;;6126666;23;19924;-76
2022/03/05 07:58:49;;;;;;;;;;;6.50;59.20;;;;;;6128519;23;19928;-75
2022/03/05 08:01:16;;;;;;;;;;;6.50;59.30;;;;;;6132238;23;19920;-75
2022/03/05 08:03:43;;;;;;;;;;;6.50;58.50;;;;;;6124013;23;19917;-76
2022/03/05 08:06:10;;;;;;;;;;;6.50;58.90;;;;;;6129330;23;19921;-77
2022/03/05 08:08:36;;;;;;;;;;;6.60;58.30;;;;;;6124542;23;19920;-74
2022/03/05 08:11:03;;;;;;;;;;;6.60;57.60;;;;;;6126120;23;19916;-76
2022/03/05 08:13:30;;;;;;;;;;;6.60;57.40;;;;;;6148787;23;19920;-76
2022/03/05 08:15:57;;;;;;;;;;;6.70;57.00;;;;;;6129075;23;19920;-76
2022/03/05 08:18:24;;;;;;;;;;;6.80;57.80;;;;;;6126335;23;19925;-76
2022/03/05 08:20:51;;;;;;;;;;;6.90;57.20;;;;;;6129640;23;19917;-74
2022/03/05 08:23:18;;;;;;;;;;;7.00;57.00;;;;;;6128802;23;20409;-76
2022/03/05 08:25:44;;;;;;;;;;;6.90;56.40;;;;;;6097582;23;19923;-76
2022/03/05 08:28:11;;;;;;;;;;;6.90;56.50;;;;;;6122955;23;20302;-76
2022/03/05 08:30:40;;;;;;;;;;;7.00;56.30;;;;;;6126602;23;20297;-74
2022/03/05 08:33:07;;;;;;;;;;;7.10;56.70;;;;;;6128688;23;19917;-74
2022/03/05 08:35:33;;;;;;;;;;;7.10;56.30;;;;;;6124713;23;19921;-76
2022/03/05 08:38:00;;;;;;;;;;;7.10;56.10;;;;;;6125728;23;20340;-75
2022/03/05 08:40:27;;;;;;;;;;;7.10;55.50;;;;;;6123814;23;19968;-75
2022/03/05 08:42:54;;;;;;;;;;;7.10;56.20;;;;;;6122397;23;19921;-75
2022/03/05 08:45:26;;;;;;;;;;;7.10;55.90;;;;;;6122590;23;19924;-76
2022/03/05 08:47:53;;;;;;;;;;;7.20;55.50;;;;;;6146754;23;20322;-75
2022/03/05 08:50:20;;;;;;;;;;;7.30;56.00;;;;;;6129147;23;19921;-76
2022/03/05 08:52:47;;;;;;;;;;;7.40;55.20;;;;;;6122719;23;19956;-74
2022/03/05 08:55:16;;;;;;;;;;;7.40;55.50;;;;;;6125280;23;19968;-74
2022/03/05 08:57:44;;;;;;;;;;;7.40;54.80;;;;;;6123696;23;19917;-76
2022/03/05 09:00:11;;;;;;;;;;;7.40;54.70;;;;;;6125466;23;19928;-76
2022/03/05 09:02:38;;;;;;;;;;;7.50;55.30;;;;;;6122030;23;19980;-76
2022/03/05 09:05:06;;;;;;;;;;;7.50;54.60;;;;;;6125315;23;19921;-74
2022/03/05 09:07:33;;;;;;;;;;;7.50;54.20;;;;;;6149806;23;19921;-74
2022/03/05 09:09:59;;;;;;;;;;;7.50;54.80;;;;;;6126212;23;20445;-75
2022/03/05 09:12:26;;;;;;;;;;;7.60;54.30;;;;;;6126297;23;19916;-74
2022/03/05 09:14:53;;;;;;;;;;;7.60;53.70;;;;;;6125037;23;19921;-74
2022/03/05 09:17:20;;;;;;;;;;;7.60;54.20;;;;;;6125182;23;20338;-76
2022/03/05 09:35:32;;;;;;;63.55;33.88;;;8.10;52.20;;;;;;5044156;28;20386;-79
2022/03/05 09:37:59;;;;;;;24.13;17.38;;;8.50;52.00;;;;;;5055573;28;20429;-78
2022/03/05 09:40:26;;;;;;;21.38;16.63;;;8.50;51.60;;;;;;5069847;28;20440;-77
2022/03/05 09:42:53;;;;;;;19.75;15.98;;;8.60;51.90;;;;;;5066323;28;20417;-77
2022/03/05 09:45:20;;;;;;;22.98;17.20;;;8.70;52.30;;;;;;5075539;28;20420;-77
2022/03/05 09:47:47;;;;;;;25.38;17.25;;;8.70;51.10;;;;;;5067515;28;20405;-76
2022/03/05 09:50:14;;;;;;;22.73;16.58;;;8.70;51.30;;;;;;5070546;28;20405;-79
2022/03/05 09:52:41;;;;;;;24.50;17.65;;;8.70;51.50;;;;;;5084911;28;20412;-78
2022/03/05 09:55:09;;;;;;;21.37;15.97;;;8.70;50.70;;;;;;5076432;28;20413;-75
2022/03/05 09:57:36;;;;;;;23.70;16.52;;;8.60;51.00;;;;;;5049524;28;20400;-78
2022/03/05 10:00:04;;;;;;;24.13;18.00;;;8.50;51.20;;;;;;5081998;28;20416;-78
2022/03/05 10:02:32;;;;;;;21.20;17.05;;;8.40;51.30;;;;;;5065252;28;20400;-77
2022/03/05 10:05:26;;;;;;;20.90;16.15;;;8.40;51.70;;;;;;5060865;28;20415;-76
2022/03/05 10:08:00;;;;;;;21.33;16.98;;;8.30;51.70;;;;;;5061938;28;20885;-75
2022/03/05 10:10:28;;;;;;;20.60;16.15;;;8.30;51.50;;;;;;5072679;28;20420;-77
2022/03/05 10:12:55;;;;;;;19.73;15.68;;;8.20;51.90;;;;;;5044440;28;20417;-76
2022/03/05 10:15:22;;;;;;;24.15;17.17;;;8.30;52.10;;;;;;5073084;28;20411;-75
2022/03/05 10:17:59;;;;;;;21.42;16.67;;;8.30;51.90;;;;;;5080052;28;20415;-79
2022/03/05 10:20:29;;;;;;;21.15;15.77;;;8.40;51.20;;;;;;5080564;28;20423;-76
2022/03/05 10:23:07;;;;;;;24.33;17.33;;;8.40;51.50;;;;;;5079333;28;20410;-76
2022/03/05 10:25:41;;;;;;;24.38;16.75;;;8.50;51.70;;;;;;5054203;28;20427;-77
2022/03/05 10:28:38;;;;;;;22.60;16.35;;;8.50;51.10;;;;;;5064852;28;20433;-77
2022/03/05 10:31:11;;;;;;;21.35;15.82;;;8.50;51.60;;;;;;5076051;28;20446;-75
2022/03/05 10:33:44;;;;;;;21.55;16.65;;;8.40;51.60;;;;;;5077728;28;20420;-77
2022/03/05 10:36:20;;;;;;;20.85;16.05;;;8.50;51.50;;;;;;5067982;28;20414;-76
2022/03/05 10:38:53;;;;;;;23.38;16.35;;;8.50;51.20;;;;;;5067780;28;20830;-76
2022/03/05 10:41:33;;;;;;;24.20;16.67;;;8.50;51.20;;;;;;5067772;28;20389;-76
2022/03/05 10:44:15;;;;;;;21.52;15.85;;;8.50;50.60;;;;;;5065675;28;20432;-77
2022/03/05 10:46:43;;;;;;;22.77;16.40;;;8.50;51.30;;;;;;5078745;28;20419;-78
2022/03/05 10:49:26;;;;;;;21.10;15.57;;;8.50;51.20;;;;;;5067506;28;20398;-77
2022/03/05 10:52:02;;;;;;;21.02;15.60;;;8.50;50.70;;;;;;5073434;28;21009;-75
2022/03/05 10:54:30;;;;;;;21.30;15.73;;;8.50;50.30;;;;;;5064138;28;20416;-79
2022/03/05 10:57:10;;;;;;;20.60;15.68;;;8.50;50.80;;;;;;5054657;28;20425;-76
2022/03/05 10:59:39;;;;;;;21.90;16.80;;;8.50;50.80;;;;;;5074088;28;20484;-79
2022/03/05 11:02:08;;;;;;;23.77;16.60;;;8.40;50.80;;;;;;5062863;28;20418;-76
2022/03/05 11:04:36;;;;;;;23.45;17.25;;;8.40;50.90;;;;;;5073213;28;20973;-77
2022/03/05 11:07:04;;;;;;;;;;;8.30;50.50;;;;;;5060110;28;20397;-77
2022/03/05 11:09:31;;;;;;;;;;;8.10;50.70;;;;;;5071009;28;20303;-76
2022/03/05 11:12:00;;;;;;;;;;;8.00;51.10;;;;;;5067437;28;19943;-77
2022/03/05 11:14:27;;;;;;;;;;;8.00;51.40;;;;;;5068170;28;20482;-76
2022/03/05 11:16:55;;;;;;;;;;;8.00;51.50;;;;;;5085184;28;19920;-75
2022/03/05 11:19:23;;;;;;;;;;;8.10;51.80;;;;;;5078912;28;19928;-76
2022/03/05 11:21:51;;;;;;;;;;;8.10;51.30;;;;;;5073905;28;20423;-78
2022/03/05 11:24:20;;;;;;;;;;;8.10;51.60;;;;;;5083493;28;19928;-76
2022/03/05 11:26:50;;;;;;;;;;;8.10;51.40;;;;;;5073583;28;19920;-79
2022/03/05 11:29:51;;;;;;;;;;;8.10;51.50;;;;;;5072419;28;19967;-76
2022/03/05 11:32:18;;;;;;;;;;;8.00;51.50;;;;;;5072995;28;20433;-77
2022/03/05 11:34:46;;;;;;;;;;;8.00;51.90;;;;;;5070561;28;19920;-75
2022/03/05 11:37:30;;;;;;;;;;;8.00;51.90;;;;;;5077376;28;19932;-79
2022/03/05 11:40:01;;;;;;;;;;;8.00;51.80;;;;;;5080663;28;19920;-79
2022/03/05 11:42:29;;;;;;;;;;;7.90;51.80;;;;;;5079668;28;19932;-76
2022/03/05 11:44:57;;;;;;;;;;;8.00;51.90;;;;;;5083153;28;19924;-79
2022/03/05 11:47:25;;;;;;;;;;;8.00;52.00;;;;;;5071215;28;19982;-77
2022/03/05 11:49:55;;;;;;;;;;;8.10;51.90;;;;;;5068723;28;19921;-75
2022/03/05 11:52:23;;;;;;;;;;;8.10;51.80;;;;;;5070033;28;19904;-76
2022/03/05 11:55:08;;;;;;;;;;;8.20;51.50;;;;;;5082018;28;19920;-76
2022/03/05 11:57:35;;;;;;;;;;;8.20;51.30;;;;;;5089782;28;19920;-79
2022/03/05 12:00:03;;;;;;;;;;;8.20;51.40;;;;;;5080604;28;19920;-76
2022/03/05 12:02:43;;;;;;;;;;;8.20;51.80;;;;;;5067604;28;19977;-76
2022/03/05 12:05:30;;;;;;;;;;;8.30;52.40;;;;;;5069579;28;20437;-77
2022/03/05 12:07:56;;;;;;;;;;;8.30;52.00;;;;;;5099934;28;19920;-76
2022/03/05 12:10:23;;;;;;;;;;;8.20;51.50;;;;;;5081246;28;19932;-76
2022/03/05 12:12:54;;;;;;;;;;;8.20;51.40;;;;;;5080429;28;20380;-79
2022/03/05 12:15:40;;;;;;;;;;;8.20;51.30;;;;;;5072206;28;19920;-75
2022/03/05 12:18:09;;;;;;;;;;;8.20;52.10;;;;;;5073902;28;20559;-76
2022/03/05 12:20:38;;;;;;;;;;;8.30;52.10;;;;;;5088708;28;19925;-78
2022/03/05 12:23:05;;;;;;;;;;;8.30;51.40;;;;;;5073507;28;19924;-76
2022/03/05 12:25:33;;;;;;;;;;;8.20;51.60;;;;;;5079513;28;19904;-76
2022/03/05 12:28:01;;;;;;;;;;;8.20;52.00;;;;;;5070916;28;19920;-77
2022/03/05 12:30:31;;;;;;;;;;;8.20;51.80;;;;;;5083503;28;20304;-79
2022/03/05 12:33:02;;;;;;;;;;;8.30;51.60;;;;;;5073715;28;19942;-76
2022/03/05 12:35:30;;;;;;;;;;;8.20;50.90;;;;;;5068080;28;19921;-79
2022/03/05 12:37:57;;;;;;;;;;;8.20;51.30;;;;;;5074621;28;19921;-76
2022/03/05 12:40:26;;;;;;;;;;;8.20;50.60;;;;;;5073057;28;19910;-76
2022/03/05 12:42:53;;;;;;;;;;;8.20;50.90;;;;;;5087448;28;19943;-78
2022/03/05 12:45:23;;;;;;;;;;;8.10;51.00;;;;;;5077279;28;19920;-76
2022/03/05 12:47:54;;;;;;;;;;;8.20;50.90;;;;;;5074858;28;20342;-75
2022/03/05 12:50:22;;;;;;;;;;;8.20;50.60;;;;;;5072368;28;19920;-77
2022/03/05 12:52:56;;;;;;;;;;;8.30;51.00;;;;;;5065993;28;19986;-75
2022/03/05 12:55:23;;;;;;;;;;;8.30;51.00;;;;;;5064583;28;20342;-79
2022/03/05 12:57:50;;;;;;;;;;;8.40;51.00;;;;;;5070325;28;19920;-75
2022/03/05 13:00:19;;;;;;;;;;;8.40;50.30;;;;;;5070784;28;19959;-76
2022/03/05 13:02:46;;;;;;;;;;;8.30;50.40;;;;;;5073834;28;19921;-78
2022/03/05 13:05:16;;;;;;;;;;;8.30;50.10;;;;;;5068293;28;20441;-77
2022/03/05 13:07:44;;;;;;;;;;;8.50;50.60;;;;;;5062918;28;20335;-79
2022/03/05 13:10:11;;;;;;;;;;;8.60;51.00;;;;;;5075418;28;19924;-76
2022/03/05 13:12:38;;;;;;;;;;;8.60;50.20;;;;;;5070150;28;19928;-77
2022/03/05 13:15:06;;;;;;;;;;;8.80;50.00;;;;;;5067494;28;19921;-75
2022/03/05 13:17:33;;;;;;;;;;;8.90;50.60;;;;;;5063969;28;19924;-76
2022/03/05 13:20:04;;;;;;;;;;;8.90;49.70;;;;;;5066040;28;19927;-79
2022/03/05 13:22:31;;;;;;;;;;;8.90;49.00;;;;;;5073981;28;19920;-77
2022/03/05 13:24:58;;;;;;;;;;;9.00;49.50;;;;;;5065690;28;20272;-77
2022/03/05 13:27:26;;;;;;;;;;;9.00;48.90;;;;;;5059371;28;19921;-77
2022/03/05 13:29:53;;;;;;;;;;;9.00;48.70;;;;;;5069673;28;19921;-79
2022/03/05 13:32:24;;;;;;;;;;;9.10;48.40;;;;;;5072679;28;20446;-76
2022/03/05 13:35:01;;;;;;;;;;;9.10;48.30;;;;;;5068538;28;19966;-76
2022/03/05 13:37:28;;;;;;;;;;;9.10;48.70;;;;;;5079518;28;19970;-79
2022/03/05 13:40:00;;;;;;;;;;;9.10;47.90;;;;;;5073228;28;20383;-79
2022/03/05 13:42:31;;;;;;;;;;;9.00;48.00;;;;;;5070146;28;19928;-78
2022/03/05 13:44:59;;;;;;;;;;;8.90;48.20;;;;;;5081553;28;19920;-76
2022/03/05 13:47:26;;;;;;;;;;;9.00;48.10;;;;;;5076174;28;19920;-76
2022/03/05 13:49:58;;;;;;;;;;;9.10;48.00;;;;;;5072232;28;20410;-76
2022/03/05 13:52:25;;;;;;;;;;;9.30;48.20;;;;;;5072790;28;19920;-76
2022/03/05 13:55:07;;;;;;;20.65;14.45;;;9.70;47.60;;;;;;5074235;28;19924;-76
2022/03/05 13:57:37;;;;;;;22.00;15.27;;;10.20;47.40;;;;;;5074614;28;20071;-76
2022/03/05 14:00:10;;;;;;;;;;;10.50;46.30;;;;;;5062960;28;20408;-77
2022/03/05 14:02:38;;;;;;;;;;;10.60;45.20;;;;;;5065219;28;19924;-79
2022/03/05 14:05:07;;;;;;;;;;;11.00;44.50;;;;;;5088257;28;20484;-79
2022/03/05 14:07:42;;;;;;;;;;;11.10;44.40;;;;;;5063059;28;19974;-76
2022/03/05 14:10:10;;;;;;;;;;;11.30;43.70;;;;;;5067902;28;19935;-77
2022/03/05 14:12:38;;;;;;;;;;;11.30;43.80;;;;;;5070712;28;19928;-77
2022/03/05 14:15:09;;;;;;;;;;;11.60;43.00;;;;;;5077429;28;19928;-77
2022/03/05 14:17:37;;;;;;;;;;;11.50;42.80;;;;;;5069671;28;20316;-77
2022/03/05 14:20:08;;;;;;;;;;;11.50;41.90;;;;;;5076848;28;19932;-77
2022/03/05 14:22:40;;;;;;;;;;;11.70;41.90;;;;;;5077219;28;19986;-77
2022/03/05 14:25:14;;;;;;;;;;;11.70;42.10;;;;;;5065731;28;19925;-77
2022/03/05 14:27:41;;;;;;;;;;;11.60;42.50;;;;;;5076022;28;19924;-78
2022/03/05 14:30:08;;;;;;;;;;;11.80;41.80;;;;;;5080170;28;20474;-78
2022/03/05 14:32:35;;;;;;;;;;;11.90;41.50;;;;;;5080357;28;20482;-78
2022/03/05 14:35:03;;;;;;;;;;;12.00;41.00;;;;;;5071371;28;19990;-76
2022/03/05 14:37:30;;;;;;;;;;;12.10;40.00;;;;;;5075501;28;19985;-77
2022/03/05 14:39:57;;;;;;;;;;;12.00;39.50;;;;;;5071075;28;19924;-78
2022/03/05 14:42:24;;;;;;;;;;;11.60;40.40;;;;;;5072530;28;20284;-77
2022/03/05 14:44:50;;;;;;;;;;;11.80;40.70;;;;;;5080980;28;19920;-75